createdAt,value
2018-01-20T00:00:05.751Z,970.00
2018-01-20T00:01:05.357Z,970.03
2018-01-20T00:02:04.988Z,970.11
2018-01-20T00:03:05.665Z,970.00
2018-01-20T00:04:04.918Z,970.03
2018-01-20T00:05:05.897Z,970.14
2018-01-20T00:06:05.531Z,970.03
2018-01-20T00:07:05.008Z,970.17
2018-01-20T00:08:06.100Z,970.20
2018-01-20T00:09:05.510Z,970.03
2018-01-20T00:10:05.410Z,970.17
2018-01-20T00:11:05.791Z,970.14
2018-01-20T00:12:05.583Z,970.17
2018-01-20T00:13:04.956Z,970.14
2018-01-20T00:14:10.741Z,970.00
2018-01-20T00:15:05.694Z,969.90
2018-01-20T00:16:05.204Z,970.20
2018-01-20T00:17:05.210Z,970.14
2018-01-20T00:18:05.228Z,970.25
2018-01-20T00:19:05.820Z,970.12
2018-01-20T00:20:05.005Z,970.20
2018-01-20T00:21:05.850Z,970.17
2018-01-20T00:22:05.683Z,970.14
2018-01-20T00:23:05.202Z,970.20
2018-01-20T00:24:06.030Z,970.12
2018-01-20T00:25:05.668Z,970.09
2018-01-20T00:26:05.777Z,970.03
2018-01-20T00:27:05.169Z,970.17
2018-01-20T00:28:05.602Z,970.12
2018-01-20T00:29:05.113Z,970.23
2018-01-20T00:30:05.673Z,970.23
2018-01-20T00:31:10.577Z,970.03
2018-01-20T00:32:05.882Z,970.06
2018-01-20T00:33:05.868Z,970.09
2018-01-20T00:34:05.920Z,970.03
2018-01-20T00:35:05.310Z,970.03
2018-01-20T00:36:05.144Z,970.12
2018-01-20T00:37:05.722Z,970.12
2018-01-20T00:38:05.366Z,970.12
2018-01-20T00:39:05.189Z,970.01
2018-01-20T00:40:05.116Z,970.07
2018-01-20T00:41:05.169Z,970.07
2018-01-20T00:42:04.992Z,970.20
2018-01-20T00:43:05.030Z,969.93
2018-01-20T00:44:05.897Z,970.20
2018-01-20T00:45:05.546Z,970.18
2018-01-20T00:46:05.361Z,970.18
2018-01-20T00:47:05.073Z,970.21
2018-01-20T00:48:05.630Z,970.12
2018-01-20T00:49:05.086Z,970.07
2018-01-20T00:50:05.768Z,970.07
2018-01-20T00:51:05.221Z,970.21
2018-01-20T00:52:10.917Z,970.18
2018-01-20T00:53:05.996Z,970.07
2018-01-20T00:54:05.230Z,970.07
2018-01-20T00:55:06.760Z,969.88
2018-01-20T00:56:05.839Z,969.91
2018-01-20T00:57:05.703Z,969.86
2018-01-20T00:58:05.652Z,970.01
2018-01-20T00:59:05.741Z,970.07
2018-01-20T01:00:05.236Z,970.04
2018-01-20T01:01:05.996Z,970.10
2018-01-20T01:02:05.500Z,969.96
2018-01-20T01:03:05.218Z,970.07
2018-01-20T01:04:05.528Z,970.04
2018-01-20T01:05:05.445Z,969.98
2018-01-20T01:06:05.845Z,970.10
2018-01-20T01:07:05.082Z,969.88
2018-01-20T01:08:05.018Z,970.01
2018-01-20T01:09:05.838Z,970.10
2018-01-20T01:10:05.217Z,970.10
2018-01-20T01:11:05.570Z,970.07
2018-01-20T01:12:05.309Z,969.91
2018-01-20T01:13:06.885Z,970.18
2018-01-20T01:14:05.160Z,970.07
2018-01-20T01:15:05.497Z,969.99
2018-01-20T01:16:05.863Z,970.10
2018-01-20T01:17:05.620Z,970.04
2018-01-20T01:18:05.824Z,970.13
2018-01-20T01:19:05.257Z,970.10
2018-01-20T01:20:06.045Z,970.02
2018-01-20T01:21:05.328Z,970.02
2018-01-20T01:22:05.283Z,970.02
2018-01-20T01:23:05.266Z,969.96
2018-01-20T01:24:05.913Z,970.05
2018-01-20T01:25:05.498Z,970.05
2018-01-20T01:26:05.054Z,969.92
2018-01-20T01:27:05.717Z,969.97
2018-01-20T01:28:05.056Z,970.10
2018-01-20T01:29:05.728Z,969.89
2018-01-20T01:30:05.461Z,970.08
2018-01-20T01:31:06.254Z,969.92
2018-01-20T01:32:05.613Z,970.08
2018-01-20T01:33:05.476Z,969.97
2018-01-20T01:34:05.768Z,970.03
2018-01-20T01:35:05.678Z,970.02
2018-01-20T01:36:05.194Z,969.89
2018-01-20T01:37:05.858Z,969.92
2018-01-20T01:38:05.922Z,969.89
2018-01-20T01:39:05.258Z,970.00
2018-01-20T01:40:05.346Z,969.92
2018-01-20T01:41:05.293Z,969.92
2018-01-20T01:42:05.770Z,970.05
2018-01-20T01:43:05.316Z,969.89
2018-01-20T01:44:05.755Z,969.84
2018-01-20T01:45:05.783Z,969.84
2018-01-20T01:46:05.440Z,969.92
2018-01-20T01:47:05.351Z,969.81
2018-01-20T01:48:05.545Z,969.84
2018-01-20T01:49:06.223Z,969.81
2018-01-20T01:50:05.602Z,969.97
2018-01-20T01:51:05.697Z,969.79
2018-01-20T01:52:05.117Z,969.92
2018-01-20T01:53:05.715Z,969.90
2018-01-20T01:54:05.271Z,970.00
2018-01-20T01:55:05.782Z,969.79
2018-01-20T01:56:05.408Z,970.00
2018-01-20T01:57:05.956Z,969.93
2018-01-20T01:58:05.228Z,969.76
2018-01-20T01:59:06.277Z,969.93
2018-01-20T02:00:05.343Z,969.82
2018-01-20T02:01:05.916Z,969.93
2018-01-20T02:02:05.596Z,969.87
2018-01-20T02:03:10.605Z,969.84
2018-01-20T02:04:05.547Z,970.00
2018-01-20T02:05:11.146Z,969.87
2018-01-20T02:06:05.216Z,969.87
2018-01-20T02:07:05.547Z,969.79
2018-01-20T02:08:05.827Z,969.85
2018-01-20T02:09:05.794Z,969.90
2018-01-20T02:10:05.759Z,969.82
2018-01-20T02:11:10.476Z,969.93
2018-01-20T02:12:05.317Z,969.82
2018-01-20T02:13:05.860Z,969.87
2018-01-20T02:14:05.456Z,969.84
2018-01-20T02:15:06.388Z,969.81
2018-01-20T02:16:05.348Z,969.82
2018-01-20T02:17:10.141Z,969.76
2018-01-20T02:18:05.349Z,969.79
2018-01-20T02:19:05.621Z,969.92
2018-01-20T02:20:05.644Z,969.70
2018-01-20T02:21:05.010Z,969.84
2018-01-20T02:22:05.091Z,969.78
2018-01-20T02:23:06.426Z,969.81
2018-01-20T02:24:05.446Z,969.78
2018-01-20T02:25:04.997Z,969.84
2018-01-20T02:26:04.984Z,969.92
2018-01-20T02:27:05.668Z,969.78
2018-01-20T02:28:05.561Z,970.03
2018-01-20T02:29:05.445Z,969.97
2018-01-20T02:30:05.051Z,969.84
2018-01-20T02:31:05.805Z,969.73
2018-01-20T02:32:05.068Z,969.92
2018-01-20T02:33:05.147Z,969.84
2018-01-20T02:34:06.102Z,970.00
2018-01-20T02:35:05.176Z,969.87
2018-01-20T02:36:05.805Z,969.92
2018-01-20T02:37:05.672Z,969.84
2018-01-20T02:38:05.726Z,969.97
2018-01-20T02:39:05.611Z,969.87
2018-01-20T02:40:05.266Z,969.90
2018-01-20T02:41:05.329Z,969.90
2018-01-20T02:42:05.260Z,969.90
2018-01-20T02:43:05.679Z,970.03
2018-01-20T02:44:06.069Z,969.92
2018-01-20T02:45:05.299Z,970.03
2018-01-20T02:46:05.752Z,969.97
2018-01-20T02:47:05.226Z,969.97
2018-01-20T02:48:06.010Z,970.05
2018-01-20T02:49:05.738Z,970.05
2018-01-20T02:50:05.162Z,970.00
2018-01-20T02:51:05.658Z,969.81
2018-01-20T02:52:05.222Z,970.02
2018-01-20T02:53:05.075Z,969.81
2018-01-20T02:54:05.432Z,969.87
2018-01-20T02:55:05.357Z,969.73
2018-01-20T02:56:05.374Z,969.70
2018-01-20T02:57:05.902Z,969.67
2018-01-20T02:58:05.789Z,969.78
2018-01-20T02:59:05.295Z,969.78
2018-01-20T03:00:05.320Z,969.78
2018-01-20T03:01:04.954Z,969.61
2018-01-20T03:02:05.611Z,969.56
2018-01-20T03:03:05.175Z,969.75
2018-01-20T03:04:05.698Z,969.58
2018-01-20T03:05:05.490Z,969.64
2018-01-20T03:06:05.125Z,969.70
2018-01-20T03:07:05.882Z,969.50
2018-01-20T03:08:05.856Z,969.56
2018-01-20T03:09:10.806Z,969.53
2018-01-20T03:10:05.777Z,969.47
2018-01-20T03:11:05.314Z,969.56
2018-01-20T03:12:05.215Z,969.59
2018-01-20T03:13:05.711Z,969.64
2018-01-20T03:14:05.248Z,969.59
2018-01-20T03:15:05.613Z,969.42
2018-01-20T03:16:05.520Z,969.64
2018-01-20T03:17:05.238Z,969.42
2018-01-20T03:18:05.765Z,969.56
2018-01-20T03:19:05.567Z,969.45
2018-01-20T03:20:05.377Z,969.59
2018-01-20T03:21:05.241Z,969.53
2018-01-20T03:22:05.701Z,969.59
2018-01-20T03:23:05.310Z,969.48
2018-01-20T03:24:04.983Z,969.53
2018-01-20T03:25:05.548Z,969.48
2018-01-20T03:26:05.993Z,969.64
2018-01-20T03:27:05.269Z,969.56
2018-01-20T03:28:05.731Z,969.50
2018-01-20T03:29:05.044Z,969.67
2018-01-20T03:30:05.677Z,969.62
2018-01-20T03:31:05.395Z,969.64
2018-01-20T03:32:05.517Z,969.62
2018-01-20T03:33:05.129Z,969.50
2018-01-20T03:34:05.586Z,969.64
2018-01-20T03:35:05.747Z,969.56
2018-01-20T03:36:05.061Z,969.56
2018-01-20T03:37:05.920Z,969.56
2018-01-20T03:38:05.441Z,969.48
2018-01-20T03:39:05.453Z,969.48
2018-01-20T03:40:05.275Z,969.59
2018-01-20T03:41:05.582Z,969.42
2018-01-20T03:42:05.204Z,969.56
2018-01-20T03:43:05.704Z,969.51
2018-01-20T03:44:05.217Z,969.53
2018-01-20T03:45:05.706Z,969.50
2018-01-20T03:46:05.302Z,969.51
2018-01-20T03:47:05.264Z,969.48
2018-01-20T03:48:10.038Z,969.48
2018-01-20T03:49:06.130Z,969.53
2018-01-20T03:50:05.311Z,969.45
2018-01-20T03:51:05.425Z,969.51
2018-01-20T03:52:05.899Z,969.62
2018-01-20T03:53:05.703Z,969.62
2018-01-20T03:54:05.126Z,969.48
2018-01-20T03:55:05.911Z,969.43
2018-01-20T03:56:05.393Z,969.48
2018-01-20T03:57:05.667Z,969.43
2018-01-20T03:58:05.561Z,969.43
2018-01-20T03:59:05.285Z,969.48
2018-01-20T04:00:05.462Z,969.35
2018-01-20T04:01:05.885Z,969.40
2018-01-20T04:02:05.051Z,969.24
2018-01-20T04:03:05.722Z,969.29
2018-01-20T04:04:05.127Z,969.52
2018-01-20T04:05:04.961Z,969.18
2018-01-20T04:06:05.611Z,969.27
2018-01-20T04:07:05.126Z,969.35
2018-01-20T04:08:05.771Z,969.35
2018-01-20T04:09:05.435Z,969.30
2018-01-20T04:10:05.575Z,969.27
2018-01-20T04:11:05.049Z,969.30
2018-01-20T04:12:05.028Z,969.22
2018-01-20T04:13:05.309Z,969.19
2018-01-20T04:14:05.272Z,969.19
2018-01-20T04:15:05.179Z,969.25
2018-01-20T04:16:06.910Z,969.22
2018-01-20T04:17:06.290Z,969.05
2018-01-20T04:18:05.874Z,969.28
2018-01-20T04:19:05.717Z,969.22
2018-01-20T04:20:05.546Z,969.22
2018-01-20T04:21:05.039Z,969.19
2018-01-20T04:22:05.607Z,969.22
2018-01-20T04:23:05.074Z,969.17
2018-01-20T04:24:05.367Z,969.14
2018-01-20T04:25:04.970Z,969.11
2018-01-20T04:26:05.371Z,969.31
2018-01-20T04:27:05.268Z,969.20
2018-01-20T04:28:05.732Z,969.15
2018-01-20T04:29:05.152Z,969.20
2018-01-20T04:30:05.958Z,969.12
2018-01-20T04:31:06.590Z,969.15
2018-01-20T04:32:05.808Z,969.15
2018-01-20T04:33:05.289Z,969.26
2018-01-20T04:34:05.179Z,969.18
2018-01-20T04:35:05.213Z,969.10
2018-01-20T04:36:05.645Z,969.15
2018-01-20T04:37:05.240Z,969.21
2018-01-20T04:38:05.343Z,969.16
2018-01-20T04:39:05.167Z,969.07
2018-01-20T04:40:05.239Z,969.10
2018-01-20T04:41:05.829Z,969.10
2018-01-20T04:42:05.411Z,969.16
2018-01-20T04:43:05.166Z,969.13
2018-01-20T04:44:05.566Z,969.08
2018-01-20T04:45:05.382Z,969.05
2018-01-20T04:46:05.626Z,969.02
2018-01-20T04:47:05.443Z,968.97
2018-01-20T04:48:06.071Z,969.08
2018-01-20T04:49:05.549Z,969.14
2018-01-20T04:50:05.767Z,969.14
2018-01-20T04:51:04.940Z,969.11
2018-01-20T04:52:05.695Z,969.03
2018-01-20T04:53:05.592Z,968.98
2018-01-20T04:54:05.608Z,969.03
2018-01-20T04:55:05.306Z,968.98
2018-01-20T04:56:05.910Z,968.87
2018-01-20T04:57:05.767Z,968.95
2018-01-20T04:58:05.886Z,969.04
2018-01-20T04:59:05.883Z,969.09
2018-01-20T05:00:05.125Z,968.93
2018-01-20T05:01:05.970Z,968.98
2018-01-20T05:02:06.233Z,968.93
2018-01-20T05:03:05.794Z,969.04
2018-01-20T05:04:05.882Z,969.01
2018-01-20T05:05:05.682Z,968.93
2018-01-20T05:06:05.603Z,968.90
2018-01-20T05:07:05.541Z,968.90
2018-01-20T05:08:04.950Z,968.93
2018-01-20T05:09:05.533Z,968.88
2018-01-20T05:10:05.373Z,968.94
2018-01-20T05:11:05.941Z,968.88
2018-01-20T05:12:05.486Z,968.74
2018-01-20T05:13:10.290Z,968.88
2018-01-20T05:14:05.394Z,968.85
2018-01-20T05:15:05.376Z,968.86
2018-01-20T05:16:10.612Z,968.97
2018-01-20T05:17:05.217Z,968.91
2018-01-20T05:18:05.838Z,968.83
2018-01-20T05:19:06.048Z,968.86
2018-01-20T05:20:05.766Z,968.83
2018-01-20T05:21:05.164Z,968.94
2018-01-20T05:22:05.691Z,968.72
2018-01-20T05:23:05.349Z,968.81
2018-01-20T05:24:05.203Z,968.83
2018-01-20T05:25:06.200Z,968.78
2018-01-20T05:26:06.012Z,968.84
2018-01-20T05:27:05.871Z,968.65
2018-01-20T05:28:05.509Z,968.75
2018-01-20T05:29:05.528Z,968.78
2018-01-20T05:30:05.209Z,968.76
2018-01-20T05:31:05.523Z,968.73
2018-01-20T05:32:05.362Z,968.79
2018-01-20T05:33:06.689Z,968.76
2018-01-20T05:34:05.818Z,968.79
2018-01-20T05:35:05.089Z,968.71
2018-01-20T05:36:05.087Z,968.71
2018-01-20T05:37:05.714Z,968.71
2018-01-20T05:38:05.283Z,968.69
2018-01-20T05:39:05.938Z,968.61
2018-01-20T05:40:05.213Z,968.71
2018-01-20T05:41:05.786Z,968.76
2018-01-20T05:42:05.504Z,968.76
2018-01-20T05:43:05.541Z,968.69
2018-01-20T05:44:05.030Z,968.66
2018-01-20T05:45:05.921Z,968.69
2018-01-20T05:46:05.370Z,968.55
2018-01-20T05:47:05.004Z,968.55
2018-01-20T05:48:06.175Z,968.61
2018-01-20T05:49:05.533Z,968.66
2018-01-20T05:50:05.009Z,968.61
2018-01-20T05:51:05.644Z,968.76
2018-01-20T05:52:05.236Z,968.61
2018-01-20T05:53:05.646Z,968.69
2018-01-20T05:54:04.949Z,968.53
2018-01-20T05:55:05.841Z,968.50
2018-01-20T05:56:05.452Z,968.53
2018-01-20T05:57:05.100Z,968.64
2018-01-20T05:58:05.305Z,968.56
2018-01-20T05:59:05.517Z,968.64
2018-01-20T06:00:05.504Z,968.56
2018-01-20T06:01:05.777Z,968.58
2018-01-20T06:02:05.618Z,968.56
2018-01-20T06:03:05.872Z,968.47
2018-01-20T06:04:05.334Z,968.59
2018-01-20T06:05:05.162Z,968.50
2018-01-20T06:06:05.134Z,968.50
2018-01-20T06:07:05.486Z,968.67
2018-01-20T06:08:06.090Z,968.53
2018-01-20T06:09:05.357Z,968.40
2018-01-20T06:10:10.472Z,968.37
2018-01-20T06:11:05.669Z,968.45
2018-01-20T06:12:05.061Z,968.29
2018-01-20T06:13:05.811Z,968.40
2018-01-20T06:14:06.053Z,968.23
2018-01-20T06:15:05.565Z,968.31
2018-01-20T06:16:05.355Z,968.26
2018-01-20T06:17:05.671Z,968.40
2018-01-20T06:18:05.364Z,968.28
2018-01-20T06:19:05.908Z,968.23
2018-01-20T06:20:05.680Z,968.39
2018-01-20T06:21:05.053Z,968.39
2018-01-20T06:22:05.611Z,968.31
2018-01-20T06:23:05.570Z,968.42
2018-01-20T06:24:05.376Z,968.42
2018-01-20T06:25:05.266Z,968.42
2018-01-20T06:26:05.428Z,968.39
2018-01-20T06:27:05.045Z,968.47
2018-01-20T06:28:05.853Z,968.33
2018-01-20T06:29:05.535Z,968.33
2018-01-20T06:30:05.478Z,968.33
2018-01-20T06:31:05.134Z,968.49
2018-01-20T06:32:05.966Z,968.38
2018-01-20T06:33:05.176Z,968.38
2018-01-20T06:34:05.612Z,968.35
2018-01-20T06:35:05.332Z,968.46
2018-01-20T06:36:05.578Z,968.49
2018-01-20T06:37:05.243Z,968.44
2018-01-20T06:38:05.725Z,968.66
2018-01-20T06:39:05.357Z,968.52
2018-01-20T06:40:06.041Z,968.55
2018-01-20T06:41:05.364Z,968.47
2018-01-20T06:42:05.960Z,968.42
2018-01-20T06:43:05.346Z,968.55
2018-01-20T06:44:05.212Z,968.44
2018-01-20T06:45:05.160Z,968.47
2018-01-20T06:46:05.669Z,968.47
2018-01-20T06:47:05.329Z,968.48
2018-01-20T06:48:05.939Z,968.45
2018-01-20T06:49:05.412Z,968.43
2018-01-20T06:50:05.249Z,968.34
2018-01-20T06:51:04.994Z,968.40
2018-01-20T06:52:05.873Z,968.46
2018-01-20T06:53:05.201Z,968.48
2018-01-20T06:54:05.619Z,968.49
2018-01-20T06:55:05.440Z,968.38
2018-01-20T06:56:05.490Z,968.54
2018-01-20T06:57:05.843Z,968.49
2018-01-20T06:58:05.204Z,968.60
2018-01-20T06:59:05.326Z,968.46
2018-01-20T07:00:05.743Z,968.49
2018-01-20T07:01:05.555Z,968.44
2018-01-20T07:02:05.509Z,968.57
2018-01-20T07:03:05.568Z,968.49
2018-01-20T07:04:05.225Z,968.57
2018-01-20T07:05:05.618Z,968.49
2018-01-20T07:06:05.017Z,968.58
2018-01-20T07:07:05.657Z,968.38
2018-01-20T07:08:05.019Z,968.60
2018-01-20T07:09:05.930Z,968.38
2018-01-20T07:10:05.408Z,968.44
2018-01-20T07:11:06.216Z,968.52
2018-01-20T07:12:05.368Z,968.52
2018-01-20T07:13:04.943Z,968.33
2018-01-20T07:14:05.080Z,968.63
2018-01-20T07:15:05.829Z,968.41
2018-01-20T07:16:10.674Z,968.52
2018-01-20T07:17:05.402Z,968.60
2018-01-20T07:18:05.082Z,968.66
2018-01-20T07:19:05.817Z,968.55
2018-01-20T07:20:05.200Z,968.61
2018-01-20T07:21:05.120Z,968.61
2018-01-20T07:22:05.650Z,968.63
2018-01-20T07:23:05.430Z,968.49
2018-01-20T07:24:05.988Z,968.58
2018-01-20T07:25:05.737Z,968.49
2018-01-20T07:26:05.161Z,968.58
2018-01-20T07:27:05.890Z,968.52
2018-01-20T07:28:05.181Z,968.60
2018-01-20T07:29:05.732Z,968.46
2018-01-20T07:30:05.777Z,968.52
2018-01-20T07:31:10.302Z,968.41
2018-01-20T07:32:05.276Z,968.35
2018-01-20T07:33:05.809Z,968.52
2018-01-20T07:34:05.259Z,968.55
2018-01-20T07:35:05.902Z,968.52
2018-01-20T07:36:05.222Z,968.60
2018-01-20T07:37:04.943Z,968.54
2018-01-20T07:38:05.757Z,968.57
2018-01-20T07:39:05.240Z,968.57
2018-01-20T07:40:05.800Z,968.51
2018-01-20T07:41:05.536Z,968.60
2018-01-20T07:42:05.980Z,968.51
2018-01-20T07:43:05.653Z,968.35
2018-01-20T07:44:05.087Z,968.46
2018-01-20T07:45:05.152Z,968.57
2018-01-20T07:46:05.116Z,968.60
2018-01-20T07:47:05.686Z,968.46
2018-01-20T07:48:05.218Z,968.54
2018-01-20T07:49:05.627Z,968.55
2018-01-20T07:50:05.795Z,968.63
2018-01-20T07:51:05.680Z,968.63
2018-01-20T07:52:05.402Z,968.46
2018-01-20T07:53:05.866Z,968.57
2018-01-20T07:54:05.247Z,968.60
2018-01-20T07:55:05.988Z,968.54
2018-01-20T07:56:05.254Z,968.60
2018-01-20T07:57:05.132Z,968.63
2018-01-20T07:58:05.780Z,968.54
2018-01-20T07:59:05.350Z,968.65
2018-01-20T08:00:05.562Z,968.60
2018-01-20T08:01:05.876Z,968.49
2018-01-20T08:02:05.818Z,968.57
2018-01-20T08:03:05.272Z,968.48
2018-01-20T08:04:15.875Z,968.51
2018-01-20T08:05:05.977Z,968.51
2018-01-20T08:06:05.337Z,968.48
2018-01-20T08:07:05.612Z,968.62
2018-01-20T08:08:05.322Z,968.51
2018-01-20T08:09:05.225Z,968.59
2018-01-20T08:10:05.878Z,968.59
2018-01-20T08:11:05.884Z,968.50
2018-01-20T08:12:05.376Z,968.61
2018-01-20T08:13:05.007Z,968.55
2018-01-20T08:14:05.884Z,968.71
2018-01-20T08:15:05.895Z,968.66
2018-01-20T08:16:05.617Z,968.65
2018-01-20T08:17:05.828Z,968.57
2018-01-20T08:18:05.402Z,968.75
2018-01-20T08:19:05.759Z,968.64
2018-01-20T08:20:05.821Z,968.59
2018-01-20T08:21:05.247Z,968.67
2018-01-20T08:22:05.655Z,968.50
2018-01-20T08:23:05.295Z,968.69
2018-01-20T08:24:05.777Z,968.63
2018-01-20T08:25:05.322Z,968.76
2018-01-20T08:26:05.695Z,968.54
2018-01-20T08:30:08.274Z,968.59
2018-01-20T08:32:05.223Z,968.70
2018-01-20T08:34:05.148Z,968.62
2018-01-20T08:35:05.372Z,968.56
2018-01-20T08:36:05.666Z,968.56
2018-01-20T08:37:05.546Z,968.50
2018-01-20T08:38:05.891Z,968.61
2018-01-20T08:39:05.799Z,968.45
2018-01-20T08:40:05.196Z,968.39
2018-01-20T08:41:06.361Z,968.53
2018-01-20T08:42:05.638Z,968.53
2018-01-20T08:43:05.248Z,968.58
2018-01-20T08:44:05.809Z,968.74
2018-01-20T08:45:05.762Z,968.55
2018-01-20T08:46:05.318Z,968.58
2018-01-20T08:47:05.120Z,968.52
2018-01-20T08:48:05.063Z,968.49
2018-01-20T08:49:05.161Z,968.57
2018-01-20T08:50:05.426Z,968.51
2018-01-20T08:51:05.440Z,968.48
2018-01-20T08:52:05.925Z,968.39
2018-01-20T08:53:05.432Z,968.58
2018-01-20T08:54:05.024Z,968.47
2018-01-20T08:55:05.500Z,968.41
2018-01-20T08:56:05.535Z,968.41
2018-01-20T08:57:05.462Z,968.33
2018-01-20T08:58:06.004Z,968.41
2018-01-20T08:59:05.277Z,968.32
2018-01-20T09:00:04.981Z,968.40
2018-01-20T09:01:05.897Z,968.43
2018-01-20T09:02:06.705Z,968.45
2018-01-20T09:03:05.782Z,968.42
2018-01-20T09:04:10.375Z,968.45
2018-01-20T09:05:05.198Z,968.36
2018-01-20T09:06:05.708Z,968.41
2018-01-20T09:07:05.149Z,968.27
2018-01-20T09:08:05.109Z,968.35
2018-01-20T09:09:06.014Z,968.46
2018-01-20T09:10:05.412Z,968.40
2018-01-20T09:11:05.662Z,968.43
2018-01-20T09:12:05.352Z,968.32
2018-01-20T09:13:05.791Z,968.40
2018-01-20T09:14:05.310Z,968.34
2018-01-20T09:15:05.147Z,968.37
2018-01-20T09:16:05.762Z,968.45
2018-01-20T09:17:05.946Z,968.58
2018-01-20T09:18:05.139Z,968.44
2018-01-20T09:19:05.081Z,968.30
2018-01-20T09:20:06.217Z,968.30
2018-01-20T09:21:05.906Z,968.44
2018-01-20T09:22:05.866Z,968.41
2018-01-20T09:23:05.525Z,968.35
2018-01-20T09:24:05.062Z,968.46
2018-01-20T09:25:05.839Z,968.46
2018-01-20T09:26:05.142Z,968.51
2018-01-20T09:27:05.909Z,968.31
2018-01-20T09:28:05.892Z,968.42
2018-01-20T09:29:05.178Z,968.48
2018-01-20T09:30:05.766Z,968.36
2018-01-20T09:31:05.641Z,968.41
2018-01-20T09:32:05.626Z,968.47
2018-01-20T09:33:05.384Z,968.52
2018-01-20T09:34:05.134Z,968.49
2018-01-20T09:35:05.903Z,968.52
2018-01-20T09:36:05.206Z,968.54
2018-01-20T09:37:05.992Z,968.59
2018-01-20T09:38:05.979Z,968.56
2018-01-20T09:39:05.446Z,968.48
2018-01-20T09:40:06.142Z,968.42
2018-01-20T09:41:05.853Z,968.64
2018-01-20T09:42:05.668Z,968.47
2018-01-20T09:43:05.743Z,968.41
2018-01-20T09:44:05.864Z,968.44
2018-01-20T09:45:05.255Z,968.52
2018-01-20T09:46:05.806Z,968.41
2018-01-20T09:47:05.291Z,968.49
2018-01-20T09:48:05.687Z,968.46
2018-01-20T09:49:05.344Z,968.40
2018-01-20T09:50:05.028Z,968.40
2018-01-20T09:51:05.680Z,968.48
2018-01-20T09:52:05.245Z,968.36
2018-01-20T09:53:05.848Z,968.58
2018-01-20T09:54:05.479Z,968.47
2018-01-20T09:55:06.057Z,968.41
2018-01-20T09:56:05.457Z,968.38
2018-01-20T09:57:05.283Z,968.35
2018-01-20T09:58:05.842Z,968.52
2018-01-20T09:59:05.398Z,968.35
2018-01-20T10:00:05.496Z,968.46
2018-01-20T10:01:04.905Z,968.51
2018-01-20T10:02:05.258Z,968.35
2018-01-20T10:03:04.949Z,968.32
2018-01-20T10:04:05.489Z,968.43
2018-01-20T10:05:05.273Z,968.37
2018-01-20T10:06:05.273Z,968.32
2018-01-20T10:07:05.791Z,968.32
2018-01-20T10:08:05.358Z,968.32
2018-01-20T10:09:05.295Z,968.37
2018-01-20T10:10:05.716Z,968.31
2018-01-20T10:11:10.681Z,968.48
2018-01-20T10:12:05.795Z,968.25
2018-01-20T10:13:05.088Z,968.39
2018-01-20T10:14:05.519Z,968.27
2018-01-20T10:15:05.461Z,968.21
2018-01-20T10:16:05.709Z,968.32
2018-01-20T10:17:05.361Z,968.41
2018-01-20T10:18:05.598Z,968.29
2018-01-20T10:19:05.699Z,968.18
2018-01-20T10:20:05.865Z,968.37
2018-01-20T10:21:05.907Z,968.20
2018-01-20T10:22:05.484Z,968.25
2018-01-20T10:23:05.122Z,968.39
2018-01-20T10:24:05.106Z,968.28
2018-01-20T10:25:05.136Z,968.22
2018-01-20T10:26:04.957Z,968.39
2018-01-20T10:27:05.883Z,968.16
2018-01-20T10:28:05.520Z,968.28
2018-01-20T10:29:05.146Z,968.25
2018-01-20T10:30:05.756Z,968.25
2018-01-20T10:31:05.279Z,968.22
2018-01-20T10:32:10.987Z,968.08
2018-01-20T10:33:05.960Z,968.22
2018-01-20T10:34:05.753Z,968.33
2018-01-20T10:35:05.732Z,968.22
2018-01-20T10:36:05.112Z,968.16
2018-01-20T10:37:05.110Z,968.30
2018-01-20T10:38:05.144Z,968.21
2018-01-20T10:39:05.731Z,968.15
2018-01-20T10:40:05.722Z,968.04
2018-01-20T10:41:05.178Z,968.23
2018-01-20T10:42:05.948Z,968.01
2018-01-20T10:43:05.845Z,968.15
2018-01-20T10:44:05.753Z,968.23
2018-01-20T10:45:05.599Z,968.14
2018-01-20T10:46:05.212Z,968.09
2018-01-20T10:47:05.778Z,968.09
2018-01-20T10:48:05.157Z,968.06
2018-01-20T10:49:05.741Z,967.97
2018-01-20T10:50:05.347Z,968.00
2018-01-20T10:51:06.047Z,967.94
2018-01-20T10:52:05.163Z,967.94
2018-01-20T10:53:05.246Z,967.97
2018-01-20T10:54:05.440Z,967.77
2018-01-20T10:55:05.585Z,967.86
2018-01-20T10:56:05.470Z,967.83
2018-01-20T10:57:10.673Z,967.91
2018-01-20T10:58:05.436Z,967.80
2018-01-20T10:59:05.349Z,968.03
2018-01-20T11:00:05.737Z,967.89
2018-01-20T11:01:05.366Z,967.83
2018-01-20T11:02:05.920Z,967.86
2018-01-20T11:03:05.667Z,967.95
2018-01-20T11:04:05.152Z,967.89
2018-01-20T11:05:05.954Z,967.78
2018-01-20T11:06:05.673Z,967.83
2018-01-20T11:07:05.027Z,967.83
2018-01-20T11:08:05.046Z,967.95
2018-01-20T11:09:05.296Z,967.81
2018-01-20T11:10:05.132Z,967.80
2018-01-20T11:11:05.099Z,967.75
2018-01-20T11:12:05.858Z,967.83
2018-01-20T11:13:10.442Z,967.83
2018-01-20T11:14:05.468Z,967.71
2018-01-20T11:15:05.290Z,967.77
2018-01-20T11:16:05.893Z,967.68
2018-01-20T11:17:05.409Z,967.68
2018-01-20T11:18:05.053Z,967.59
2018-01-20T11:19:05.508Z,967.59
2018-01-20T11:20:05.776Z,967.70
2018-01-20T11:21:05.471Z,967.58
2018-01-20T11:22:05.396Z,967.61
2018-01-20T11:23:05.037Z,967.55
2018-01-20T11:24:05.457Z,967.69
2018-01-20T11:25:04.941Z,967.49
2018-01-20T11:26:06.016Z,967.49
2018-01-20T11:27:06.095Z,967.41
2018-01-20T11:28:06.047Z,967.46
2018-01-20T11:29:05.597Z,967.52
2018-01-20T11:30:05.442Z,967.46
2018-01-20T11:31:05.711Z,967.36
2018-01-20T11:32:05.110Z,967.36
2018-01-20T11:33:05.245Z,967.41
2018-01-20T11:34:05.169Z,967.49
2018-01-20T11:35:05.951Z,967.36
2018-01-20T11:36:05.494Z,967.30
2018-01-20T11:37:05.160Z,967.36
2018-01-20T11:38:05.035Z,967.24
2018-01-20T11:39:06.096Z,967.19
2018-01-20T11:40:05.512Z,967.27
2018-01-20T11:41:05.361Z,967.27
2018-01-20T11:42:05.926Z,967.11
2018-01-20T11:43:05.979Z,967.36
2018-01-20T11:44:05.339Z,967.19
2018-01-20T11:45:05.979Z,967.16
2018-01-20T11:46:05.566Z,967.11
2018-01-20T11:47:05.146Z,967.08
2018-01-20T11:48:05.387Z,967.17
2018-01-20T11:49:06.016Z,967.08
2018-01-20T11:50:05.550Z,967.11
2018-01-20T11:51:05.790Z,967.14
2018-01-20T11:52:05.400Z,967.01
2018-01-20T11:53:05.089Z,966.93
2018-01-20T11:54:05.994Z,966.99
2018-01-20T11:55:05.374Z,966.96
2018-01-20T11:56:05.419Z,966.99
2018-01-20T11:57:05.353Z,966.85
2018-01-20T11:58:05.475Z,967.07
2018-01-20T11:59:04.961Z,967.01
2018-01-20T12:00:05.839Z,966.91
2018-01-20T12:01:05.384Z,966.99
2018-01-20T12:02:05.374Z,966.80
2018-01-20T12:03:05.290Z,966.83
2018-01-20T12:04:05.568Z,966.88
2018-01-20T12:05:05.919Z,966.83
2018-01-20T12:06:06.032Z,966.72
2018-01-20T12:07:05.569Z,966.83
2018-01-20T12:08:05.459Z,966.74
2018-01-20T12:09:05.786Z,966.75
2018-01-20T12:10:05.892Z,966.69
2018-01-20T12:11:05.957Z,966.60
2018-01-20T12:12:05.957Z,966.55
2018-01-20T12:13:05.367Z,966.55
2018-01-20T12:14:05.228Z,966.58
2018-01-20T12:15:05.624Z,966.63
2018-01-20T12:16:05.630Z,966.58
2018-01-20T12:17:06.573Z,966.55
2018-01-20T12:18:05.662Z,966.49
2018-01-20T12:19:05.062Z,966.55
2018-01-20T12:20:05.769Z,966.49
2018-01-20T12:21:05.218Z,966.49
2018-01-20T12:22:05.770Z,966.58
2018-01-20T12:23:05.157Z,966.49
2018-01-20T12:24:05.274Z,966.49
2018-01-20T12:25:05.923Z,966.38
2018-01-20T12:26:05.905Z,966.32
2018-01-20T12:27:05.980Z,966.35
2018-01-20T12:28:05.593Z,966.52
2018-01-20T12:29:05.539Z,966.49
2018-01-20T12:30:05.796Z,966.52
2018-01-20T12:31:06.070Z,966.38
2018-01-20T12:32:05.363Z,966.43
2018-01-20T12:33:06.240Z,966.41